createdAt,value
2018-10-19T00:00:14.717Z,102688.08
2018-10-19T00:02:43.491Z,102683.30
2018-10-19T00:05:11.161Z,102681.09
2018-10-19T00:07:38.756Z,102681.97
2018-10-19T00:10:07.369Z,102681.97
2018-10-19T00:12:34.978Z,102681.08
2018-10-19T00:15:02.705Z,102680.64
2018-10-19T00:17:30.364Z,102670.99
2018-10-19T00:19:58.003Z,102671.00
2018-10-19T00:22:25.637Z,102671.42
2018-10-19T00:24:53.263Z,102673.62
2018-10-19T00:27:20.884Z,102675.39
2018-10-19T00:29:48.494Z,102670.98
2018-10-19T00:32:16.143Z,102669.66
2018-10-19T00:34:43.782Z,102669.66
2018-10-19T00:37:11.425Z,102663.98
2018-10-19T00:39:39.149Z,102667.92
2018-10-19T00:42:06.771Z,102667.02
2018-10-19T00:44:34.389Z,102673.14
2018-10-19T00:47:02.079Z,102668.77
2018-10-19T00:49:29.734Z,102663.52
2018-10-19T00:51:57.467Z,102672.70
2018-10-19T00:54:25.148Z,102668.33
2018-10-19T00:56:52.911Z,102666.59
2018-10-19T00:59:20.545Z,102663.52
2018-10-19T01:01:48.213Z,102663.54
2018-10-19T01:04:15.859Z,102657.42
2018-10-19T01:06:43.551Z,102659.56
2018-10-19T01:09:11.312Z,102663.95
2018-10-19T01:11:38.891Z,102656.96
2018-10-19T01:14:06.653Z,102658.25
2018-10-19T01:16:34.299Z,102662.19
2018-10-19T01:19:01.969Z,102659.97
2018-10-19T01:21:29.588Z,102665.66
2018-10-19T01:23:57.264Z,102663.48
2018-10-19T01:26:24.945Z,102668.27
2018-10-19T01:28:52.589Z,102673.08
2018-10-19T01:31:20.252Z,102667.81
2018-10-19T01:33:47.933Z,102670.87
2018-10-19T01:36:15.581Z,102670.42
2018-10-19T01:38:43.228Z,102675.23
2018-10-19T01:41:10.921Z,102675.19
2018-10-19T01:43:38.551Z,102674.30
2018-10-19T01:46:06.191Z,102675.16
2018-10-19T01:48:33.869Z,102679.54
2018-10-19T01:51:01.575Z,102673.41
2018-10-19T01:53:29.236Z,102676.02
2018-10-19T01:55:56.808Z,102676.01
2018-10-19T01:58:24.446Z,102676.45
2018-10-19T02:00:52.106Z,102679.94
2018-10-19T02:03:19.780Z,102672.91
2018-10-19T02:05:47.395Z,102672.45
2018-10-19T02:08:15.064Z,102676.81
2018-10-19T02:10:42.747Z,102670.68
2018-10-19T02:13:10.576Z,102677.66
2018-10-19T02:15:38.560Z,102672.83
2018-10-19T02:18:06.465Z,102670.20
2018-10-19T02:20:34.111Z,102669.34
2018-10-19T02:23:01.852Z,102669.35
2018-10-19T02:25:29.436Z,102665.01
2018-10-19T02:27:57.083Z,102666.77
2018-10-19T02:30:24.877Z,102669.84
2018-10-19T02:32:52.500Z,102671.57
2018-10-19T02:35:20.292Z,102676.78
2018-10-19T02:37:47.973Z,102675.45
2018-10-19T02:40:15.647Z,102676.33
2018-10-19T02:42:43.310Z,102680.67
2018-10-19T02:45:11.016Z,102678.03
2018-10-19T02:47:38.984Z,102677.17
2018-10-19T02:50:07.353Z,102677.59
2018-10-19T02:52:35.055Z,102680.22
2018-10-19T02:55:02.942Z,102687.13
2018-10-19T02:57:30.755Z,102686.67
2018-10-19T02:59:58.420Z,102686.64
2018-10-19T03:02:26.096Z,102686.20
2018-10-19T03:04:53.846Z,102686.66
2018-10-19T03:07:21.464Z,102688.02
2018-10-19T03:09:49.276Z,102692.44
2018-10-19T03:12:16.912Z,102682.79
2018-10-19T03:14:44.575Z,102689.81
2018-10-19T03:17:12.315Z,102684.09
2018-10-19T03:19:40.004Z,102681.86
2018-10-19T03:22:07.749Z,102681.01
2018-10-19T03:24:35.390Z,102679.66
2018-10-19T03:27:03.093Z,102678.35
2018-10-19T03:29:30.744Z,102681.39
2018-10-19T03:31:58.587Z,102681.84
2018-10-19T03:34:26.256Z,102684.02
2018-10-19T03:36:53.904Z,102680.98
2018-10-19T03:39:21.624Z,102684.50
2018-10-19T03:41:49.301Z,102682.75
2018-10-19T03:44:17.005Z,102680.55
2018-10-19T03:46:45.005Z,102678.79
2018-10-19T03:49:12.724Z,102680.98
2018-10-19T03:51:40.282Z,102685.33
2018-10-19T03:54:08.095Z,102688.33
2018-10-19T03:56:42.335Z,102688.35
2018-10-19T03:59:09.985Z,102690.48
2018-10-19T04:01:37.655Z,102691.80
2018-10-19T04:04:05.340Z,102685.70
2018-10-19T04:06:32.962Z,102689.17
2018-10-19T04:09:00.619Z,102689.61
2018-10-19T04:11:28.279Z,102683.45
2018-10-19T04:13:55.944Z,102684.77
2018-10-19T04:16:23.568Z,102687.39
2018-10-19T04:18:51.213Z,102692.19
2018-10-19T04:21:18.850Z,102688.64
2018-10-19T04:23:46.511Z,102688.64
2018-10-19T04:26:14.209Z,102684.29
2018-10-19T04:28:41.829Z,102683.77
2018-10-19T04:31:09.495Z,102688.19
2018-10-19T04:33:37.355Z,102689.48
2018-10-19T04:36:05.300Z,102693.88
2018-10-19T04:38:33.020Z,102693.86
2018-10-19T04:41:00.791Z,102693.38
2018-10-19T04:43:28.495Z,102688.11
2018-10-19T04:45:56.184Z,102691.17
2018-10-19T04:48:23.789Z,102690.68
2018-10-19T04:50:51.411Z,102689.77
2018-10-19T04:53:19.139Z,102690.99
2018-10-19T04:55:46.833Z,102687.52
2018-10-19T04:58:14.440Z,102693.60
2018-10-19T05:00:42.053Z,102681.30
2018-10-19T05:03:09.740Z,102686.10
2018-10-19T05:05:37.374Z,102697.05
2018-10-19T05:08:04.971Z,102685.22
2018-10-19T05:10:32.579Z,102684.02
2018-10-19T05:13:00.250Z,102691.97
2018-10-19T05:15:27.853Z,102694.94
2018-10-19T05:17:55.578Z,102701.42
2018-10-19T05:20:23.242Z,102708.41
2018-10-19T05:22:50.944Z,102708.45
2018-10-19T05:25:18.625Z,102704.94
2018-10-19T05:27:46.372Z,102706.70
2018-10-19T05:30:14.141Z,102703.23
2018-10-19T05:32:42.515Z,102694.92
2018-10-19T05:35:10.347Z,102698.91
2018-10-19T05:37:39.027Z,102693.22
2018-10-19T05:40:07.863Z,102700.24
2018-10-19T05:42:35.533Z,102701.08
2018-10-19T05:45:03.264Z,102703.70
2018-10-19T05:47:30.964Z,102705.02
2018-10-19T05:49:58.583Z,102705.00
2018-10-19T05:52:26.675Z,102704.16
2018-10-19T05:54:54.356Z,102707.63
2018-10-19T05:57:21.996Z,102708.02
2018-10-19T05:59:49.729Z,102707.15
2018-10-19T06:02:17.420Z,102705.42
2018-10-19T06:04:49.351Z,102705.83
2018-10-19T06:07:16.965Z,102705.02
2018-10-19T06:09:44.742Z,102709.34
2018-10-19T06:12:12.868Z,102709.34
2018-10-19T06:14:40.669Z,102708.45
2018-10-19T06:17:08.444Z,102709.77
2018-10-19T06:19:36.060Z,102717.59
2018-10-19T06:22:03.798Z,102714.06
2018-10-19T06:24:31.435Z,102720.27
2018-10-19T06:26:59.258Z,102729.94
2018-10-19T06:29:27.211Z,102724.30
2018-10-19T06:31:55.072Z,102723.41
2018-10-19T06:34:24.318Z,102733.00
2018-10-19T06:36:52.013Z,102730.35
2018-10-19T06:39:19.846Z,102724.63
2018-10-19T06:41:47.714Z,102727.23
2018-10-19T06:44:15.781Z,102725.92
2018-10-19T06:46:44.806Z,102738.13
2018-10-19T06:49:12.763Z,102738.14
2018-10-19T06:51:40.465Z,102745.55
2018-10-19T06:54:08.491Z,102743.38
2018-10-19T06:56:37.154Z,102739.38
2018-10-19T06:59:04.904Z,102745.45
2018-10-19T07:01:32.778Z,102741.49
2018-10-19T07:04:00.652Z,102750.24
2018-10-19T07:06:28.479Z,102754.15
2018-10-19T07:08:56.539Z,102756.33
2018-10-19T07:11:25.220Z,102746.69
2018-10-19T07:13:53.272Z,102742.76
2018-10-19T07:16:23.452Z,102747.58
2018-10-19T07:18:51.483Z,102737.95
2018-10-19T07:21:20.223Z,102743.20
2018-10-19T07:23:47.969Z,102743.23
2018-10-19T07:26:16.212Z,102741.03
2018-10-19T07:28:44.319Z,102741.90
2018-10-19T07:31:12.499Z,102743.61
2018-10-19T07:33:40.987Z,102744.05
2018-10-19T07:36:09.102Z,102745.77
2018-10-19T07:38:36.792Z,102744.92
2018-10-19T07:41:04.834Z,102744.91
2018-10-19T07:43:32.846Z,102754.55
2018-10-19T07:46:00.759Z,102747.98
2018-10-19T07:48:28.647Z,102757.64
2018-10-19T07:50:56.793Z,102756.70
2018-10-19T07:53:25.116Z,102755.86
2018-10-19T07:55:52.789Z,102758.05
2018-10-19T07:58:22.013Z,102761.11
2018-10-19T08:00:50.098Z,102751.91
2018-10-19T08:03:17.779Z,102756.75
2018-10-19T08:05:46.236Z,102756.77
2018-10-19T08:08:14.251Z,102755.90
2018-10-19T08:10:42.291Z,102763.73
2018-10-19T08:13:09.994Z,102764.20
2018-10-19T08:15:38.249Z,102765.11
2018-10-19T08:18:06.313Z,102763.80
2018-10-19T08:20:34.147Z,102761.63
2018-10-19T08:23:02.763Z,102767.78
2018-10-19T08:25:30.636Z,102770.38
2018-10-19T08:27:58.557Z,102768.22
2018-10-19T08:30:26.826Z,102770.02
2018-10-19T08:32:54.931Z,102767.41
2018-10-19T08:35:22.990Z,102768.70
2018-10-19T08:37:51.116Z,102773.53
2018-10-19T08:40:19.163Z,102774.41
2018-10-19T08:42:47.947Z,102770.50
2018-10-19T08:45:16.335Z,102778.39
2018-10-19T08:47:44.243Z,102772.73
2018-10-19T08:50:11.773Z,102770.11
2018-10-19T08:52:39.843Z,102780.20
2018-10-19T08:55:07.656Z,102776.27
2018-10-19T08:57:35.812Z,102773.70
2018-10-19T09:00:03.899Z,102774.63
2018-10-19T09:02:31.904Z,102764.53
2018-10-19T09:04:59.680Z,102770.69
2018-10-19T09:07:27.437Z,102772.05
2018-10-19T09:09:55.703Z,102773.41
2018-10-19T09:12:23.632Z,102761.65
2018-10-19T09:15:00.919Z,102767.34
2018-10-19T09:17:29.230Z,102772.16
2018-10-19T09:19:58.372Z,102773.47
2018-10-19T09:22:26.399Z,102767.38
2018-10-19T09:24:54.232Z,102771.75
2018-10-19T09:27:22.472Z,102771.76
2018-10-19T09:29:50.616Z,102768.27
2018-10-19T09:32:18.439Z,102769.13
2018-10-19T09:34:46.152Z,102756.45
2018-10-19T09:37:14.503Z,102763.94
2018-10-19T09:39:42.450Z,102756.97
2018-10-19T09:42:10.622Z,102759.14
2018-10-19T09:44:38.499Z,102752.62
2018-10-19T09:47:06.819Z,102753.98
2018-10-19T09:49:34.929Z,102753.55
2018-10-19T09:52:02.737Z,102751.38
2018-10-19T09:54:30.965Z,102750.12
2018-10-19T09:56:59.009Z,102747.53
2018-10-19T09:59:26.972Z,102746.70
2018-10-19T10:01:55.144Z,102744.06
2018-10-19T10:04:23.275Z,102748.91
2018-10-19T10:06:50.971Z,102745.87
2018-10-19T10:09:20.237Z,102747.21
2018-10-19T10:11:48.309Z,102750.27
2018-10-19T10:14:16.341Z,102748.95
2018-10-19T10:16:45.164Z,102742.41
2018-10-19T10:19:13.322Z,102744.19
2018-10-19T10:21:40.980Z,102744.63
2018-10-19T10:24:09.179Z,102740.72
2018-10-19T10:26:37.296Z,102742.91
2018-10-19T10:29:06.293Z,102742.50
2018-10-19T10:31:34.401Z,102744.69
2018-10-19T10:34:02.119Z,102732.47
2018-10-19T10:36:29.924Z,102732.91
2018-10-19T10:38:58.072Z,102730.30
2018-10-19T10:41:26.023Z,102726.38
2018-10-19T10:43:54.121Z,102732.48
2018-10-19T10:46:21.999Z,102722.00
2018-10-19T10:48:50.379Z,102723.77
2018-10-19T10:51:18.528Z,102728.17
2018-10-19T10:53:46.398Z,102737.80
2018-10-19T10:56:15.161Z,102726.91
2018-10-19T10:58:43.059Z,102722.97
2018-10-19T11:01:13.830Z,102722.14
2018-10-19T11:03:41.673Z,102724.77
2018-10-19T11:06:09.419Z,102724.77
2018-10-19T11:08:37.133Z,102726.97
2018-10-19T11:11:08.769Z,102726.09
2018-10-19T11:13:37.005Z,102729.15
2018-10-19T11:16:04.813Z,102729.59
2018-10-19T11:18:32.709Z,102730.48
2018-10-19T11:21:00.336Z,102725.27
2018-10-19T11:23:28.067Z,102722.63
2018-10-19T11:25:55.832Z,102721.77
2018-10-19T11:28:23.913Z,102718.28
2018-10-19T11:30:52.044Z,102713.94
2018-10-19T11:33:19.929Z,102715.27
2018-10-19T11:35:47.696Z,102715.71
2018-10-19T11:38:15.471Z,102713.95
2018-10-19T11:40:43.531Z,102706.09
2018-10-19T11:43:11.186Z,102703.08
2018-10-19T11:45:39.375Z,102714.03
2018-10-19T11:48:07.209Z,102715.80
2018-10-19T11:50:35.144Z,102713.16
2018-10-19T11:53:02.868Z,102710.56
2018-10-19T11:55:30.850Z,102706.17
2018-10-19T11:57:58.562Z,102711.88
2018-10-19T12:00:26.195Z,102708.37
2018-10-19T12:02:53.877Z,102704.89
2018-10-19T12:05:21.627Z,102713.20
2018-10-19T12:07:49.333Z,102709.28
2018-10-19T12:10:17.055Z,102705.34
2018-10-19T12:12:44.689Z,102710.59
2018-10-19T12:15:13.668Z,102708.84
2018-10-19T12:17:41.940Z,102704.88
2018-10-19T12:20:11.577Z,102708.81
2018-10-19T12:22:39.303Z,102698.30
2018-10-19T12:25:08.532Z,102694.80
2018-10-19T12:27:36.164Z,102690.00
2018-10-19T12:30:03.937Z,102691.73
2018-10-19T12:32:31.572Z,102689.56
2018-10-19T12:34:59.201Z,102685.20
2018-10-19T12:37:26.907Z,102676.45
2018-10-19T12:39:54.483Z,102673.41
2018-10-19T12:42:22.102Z,102669.48
2018-10-19T12:44:49.789Z,102658.52
2018-10-19T12:47:31.535Z,102659.42
2018-10-19T12:49:59.172Z,102648.90
2018-10-19T12:52:26.891Z,102646.28
2018-10-19T12:54:54.617Z,102638.41
2018-10-19T12:57:22.270Z,102644.11
2018-10-19T12:59:49.864Z,102637.09
2018-10-19T13:02:17.549Z,102636.21
2018-10-19T13:04:45.129Z,102630.94
2018-10-19T13:07:12.848Z,102631.88
2018-10-19T13:09:40.440Z,102627.05
2018-10-19T13:12:08.089Z,102626.14
2018-10-19T13:14:35.770Z,102623.95
2018-10-19T13:17:03.439Z,102625.70
2018-10-19T13:19:31.115Z,102621.73
2018-10-19T13:21:58.712Z,102626.11
2018-10-19T13:24:26.411Z,102625.66
2018-10-19T13:26:54.032Z,102626.98
2018-10-19T13:29:21.676Z,102619.09
2018-10-19T13:31:49.333Z,102622.58
2018-10-19T13:34:17.005Z,102624.78
2018-10-19T13:36:44.815Z,102613.83
2018-10-19T13:39:13.237Z,102612.08
2018-10-19T13:41:41.330Z,102611.19
2018-10-19T13:44:09.066Z,102609.47
2018-10-19T13:46:36.735Z,102623.05
2018-10-19T13:49:04.629Z,102613.42
2018-10-19T13:51:32.621Z,102609.89
2018-10-19T13:54:00.290Z,102624.83
2018-10-19T13:56:27.944Z,102620.44
2018-10-19T13:58:55.599Z,102623.06
2018-10-19T14:01:23.212Z,102625.72
2018-10-19T14:03:50.821Z,102629.23
2018-10-19T14:06:18.436Z,102632.73
2018-10-19T14:08:46.124Z,102625.25
2018-10-19T14:11:13.838Z,102620.44
2018-10-19T14:13:41.478Z,102624.84
2018-10-19T14:16:09.059Z,102619.56
2018-10-19T14:18:36.664Z,102612.97
2018-10-19T14:21:04.373Z,102605.93
2018-10-19T14:23:31.956Z,102608.56
2018-10-19T14:25:59.536Z,102609.90
2018-10-19T14:28:27.193Z,102600.66
2018-10-19T14:30:54.764Z,102602.01
2018-10-19T14:33:22.508Z,102604.20
2018-10-19T14:35:50.066Z,102608.14
2018-10-19T14:38:17.737Z,102607.72
2018-10-19T14:40:45.397Z,102604.66
2018-10-19T14:43:13.041Z,102606.86
2018-10-19T14:45:40.697Z,102602.05
2018-10-19T14:48:08.457Z,102605.13
2018-10-19T14:50:36.092Z,102606.01
2018-10-19T14:53:03.694Z,102613.01
2018-10-19T14:55:31.375Z,102604.27
2018-10-19T14:57:58.953Z,102599.43
2018-10-19T15:00:26.576Z,102595.49
2018-10-19T15:02:54.275Z,102598.55
2018-10-19T15:05:21.891Z,102599.00
2018-10-19T15:07:49.540Z,102597.19
2018-10-19T15:10:18.700Z,102597.65
2018-10-19T15:12:46.088Z,102592.81
2018-10-19T15:15:15.494Z,102594.59
2018-10-19T15:17:43.198Z,102592.84
2018-10-19T15:20:11.482Z,102593.26
2018-10-19T15:22:39.077Z,102592.83
2018-10-19T15:25:07.494Z,102591.08
2018-10-19T15:27:35.216Z,102592.82
2018-10-19T15:30:02.954Z,102587.56
2018-10-19T15:32:30.604Z,102597.22
2018-10-19T15:34:58.205Z,102589.33
2018-10-19T15:37:26.234Z,102588.89
2018-10-19T15:39:53.869Z,102589.34
2018-10-19T15:42:21.517Z,102590.22
2018-10-19T15:44:49.132Z,102594.61
2018-10-19T15:47:16.756Z,102592.39
2018-10-19T15:49:44.517Z,102606.41
2018-10-19T15:52:12.115Z,102610.81
2018-10-19T15:54:39.759Z,102611.66
2018-10-19T15:57:07.369Z,102615.17
2018-10-19T15:59:35.053Z,102616.05
2018-10-19T16:02:02.688Z,102614.75
2018-10-19T16:04:30.295Z,102613.41
2018-10-19T16:06:57.913Z,102615.59
2018-10-19T16:09:25.555Z,102609.89
2018-10-19T16:11:53.214Z,102598.94
2018-10-19T16:14:20.872Z,102602.02
2018-10-19T16:16:48.572Z,102595.89
2018-10-19T16:19:16.165Z,102607.24
2018-10-19T16:21:43.765Z,102605.06
2018-10-19T16:24:11.503Z,102611.62
2018-10-19T16:26:39.055Z,102609.44
2018-10-19T16:29:06.713Z,102616.42
2018-10-19T16:31:34.388Z,102614.24
2018-10-19T16:34:02.005Z,102625.16
2018-10-19T16:36:29.625Z,102613.80
2018-10-19T16:38:57.264Z,102627.80
2018-10-19T16:41:24.839Z,102629.98
2018-10-19T16:43:52.539Z,102632.17
2018-10-19T16:46:20.217Z,102626.42
2018-10-19T16:48:47.775Z,102625.12
2018-10-19T16:51:15.461Z,102620.74
2018-10-19T16:53:43.086Z,102630.34
2018-10-19T16:56:10.659Z,102631.64
2018-10-19T16:58:38.336Z,102639.52
2018-10-19T17:01:05.979Z,102636.89
2018-10-19T17:03:33.726Z,102638.64
2018-10-19T17:06:08.025Z,102643.00
2018-10-19T17:08:35.563Z,102638.20
2018-10-19T17:11:03.176Z,102636.45
2018-10-19T17:13:30.837Z,102646.95
2018-10-19T17:15:58.452Z,102637.73
2018-10-19T17:18:26.081Z,102641.23
2018-10-19T17:20:53.812Z,102647.78
2018-10-19T17:23:21.403Z,102649.98
2018-10-19T17:25:49.068Z,102647.34
2018-10-19T17:28:16.691Z,102643.83
2018-10-19T17:30:44.402Z,102646.91
2018-10-19T17:33:12.008Z,102650.40
2018-10-19T17:35:39.643Z,102653.02
2018-10-19T17:38:07.328Z,102647.31
2018-10-19T17:40:34.981Z,102647.31
2018-10-19T17:43:02.663Z,102649.47
2018-10-19T17:45:30.272Z,102655.16
2018-10-19T17:47:57.925Z,102662.61
2018-10-19T17:50:25.603Z,102673.98
2018-10-19T17:52:53.232Z,102673.52
2018-10-19T17:55:20.852Z,102673.97
2018-10-19T17:57:48.480Z,102671.33
2018-10-19T18:00:16.149Z,102671.77
2018-10-19T18:02:43.682Z,102687.06
2018-10-19T18:05:11.365Z,102689.23
2018-10-19T18:07:39.341Z,102687.02
2018-10-19T18:10:06.988Z,102700.61
2018-10-19T18:12:34.714Z,102700.59
2018-10-19T18:15:02.433Z,102699.70
2018-10-19T18:17:29.997Z,102706.70
2018-10-19T18:19:57.615Z,102704.08
2018-10-19T18:22:25.315Z,102708.42
2018-10-19T18:24:52.977Z,102708.88
2018-10-19T18:27:20.619Z,102715.86
2018-10-19T18:29:48.286Z,102714.55
2018-10-19T18:32:15.921Z,102714.98
2018-10-19T18:34:43.570Z,102711.89
2018-10-19T18:37:11.197Z,102709.72
2018-10-19T18:39:38.769Z,102718.02
2018-10-19T18:42:06.520Z,102720.17
2018-10-19T18:44:34.139Z,102717.55
2018-10-19T18:47:01.828Z,102719.30
2018-10-19T18:49:29.456Z,102716.69
2018-10-19T18:51:57.274Z,102711.02
2018-10-19T18:54:25.008Z,102716.27
2018-10-19T18:56:52.726Z,102714.52
2018-10-19T18:59:20.555Z,102717.56
2018-10-19T19:01:48.688Z,102713.17
2018-10-19T19:04:16.339Z,102715.38
2018-10-19T19:06:44.072Z,102720.61
2018-10-19T19:09:13.544Z,102723.23
2018-10-19T19:11:41.270Z,102712.72
2018-10-19T19:14:09.167Z,102708.34
2018-10-19T19:16:37.080Z,102696.09
2018-10-19T19:19:05.120Z,102691.72
2018-10-19T19:21:33.043Z,102693.47
2018-10-19T19:24:06.352Z,102700.89
2018-10-19T19:26:34.021Z,102706.59
2018-10-19T19:29:01.716Z,102699.56
2018-10-19T19:31:29.429Z,102697.83
2018-10-19T19:34:02.851Z,102694.78
2018-10-19T19:36:30.599Z,102696.92
2018-10-19T19:38:58.278Z,102693.44
2018-10-19T19:41:31.504Z,102694.75
2018-10-19T19:43:59.185Z,102686.43
2018-10-19T19:46:26.809Z,102686.85
2018-10-19T19:49:00.009Z,102691.67
2018-10-19T19:51:27.717Z,102693.41
2018-10-19T19:53:55.368Z,102699.56
2018-10-19T19:56:23.017Z,102710.91
2018-10-19T19:58:50.618Z,102716.14
2018-10-19T20:01:18.279Z,102722.26
2018-10-19T20:03:45.834Z,102738.44
2018-10-19T20:06:13.576Z,102740.62
2018-10-19T20:08:41.134Z,102740.59
2018-10-19T20:11:08.966Z,102741.91
2018-10-19T20:13:36.493Z,102749.33
2018-10-19T20:16:04.372Z,102747.55
2018-10-19T20:18:32.012Z,102737.95
2018-10-19T20:21:00.426Z,102742.77
2018-10-19T20:23:28.012Z,102743.61
2018-10-19T20:25:55.611Z,102746.69
2018-10-19T20:28:23.237Z,102749.31
2018-10-19T20:30:50.807Z,102754.57
2018-10-19T20:33:18.484Z,102748.87
2018-10-19T20:35:46.066Z,102747.55
2018-10-19T20:38:13.716Z,102750.64
2018-10-19T20:40:41.381Z,102748.44
2018-10-19T20:43:09.008Z,102751.06
2018-10-19T20:45:36.702Z,102752.37
2018-10-19T20:48:04.680Z,102745.36
2018-10-19T20:50:32.253Z,102740.98
2018-10-19T20:52:59.906Z,102740.98
2018-10-19T20:55:27.484Z,102729.64
2018-10-19T20:57:55.115Z,102742.77
2018-10-19T21:00:22.700Z,102743.62
2018-10-19T21:02:50.328Z,102736.22
2018-10-19T21:05:17.999Z,102740.56
2018-10-19T21:07:45.628Z,102746.23
2018-10-19T21:10:13.965Z,102739.23
2018-10-19T21:12:41.659Z,102732.70
2018-10-19T21:15:10.947Z,102725.27
2018-10-19T21:17:38.751Z,102722.23
2018-10-19T21:20:07.444Z,102723.53
2018-10-19T21:22:35.544Z,102727.87
2018-10-19T21:25:03.211Z,102718.27
2018-10-19T21:27:30.821Z,102713.45
2018-10-19T21:29:58.496Z,102712.16
2018-10-19T21:32:26.085Z,102715.67
2018-10-19T21:34:53.756Z,102708.67
2018-10-19T21:37:21.407Z,102705.60
2018-10-19T21:39:49.305Z,102712.59
2018-10-19T21:42:16.903Z,102712.61
2018-10-19T21:44:44.497Z,102712.58
2018-10-19T21:47:12.150Z,102705.14
2018-10-19T21:49:39.757Z,102700.34
2018-10-19T21:52:07.380Z,102700.76
2018-10-19T21:54:35.000Z,102706.00
2018-10-19T21:57:02.598Z,102715.60
2018-10-19T21:59:30.195Z,102721.32
2018-10-19T22:01:57.843Z,102724.38
2018-10-19T22:04:32.047Z,102725.23
2018-10-19T22:06:59.665Z,102730.46
2018-10-19T22:09:27.322Z,102732.66
2018-10-19T22:11:54.916Z,102737.45
2018-10-19T22:14:22.534Z,102747.94
2018-10-19T22:16:50.108Z,102740.48
2018-10-19T22:19:17.761Z,102730.39
2018-10-19T22:21:45.361Z,102737.84
2018-10-19T22:24:12.957Z,102743.95
2018-10-19T22:26:40.594Z,102749.16
2018-10-19T22:29:08.495Z,102761.40
2018-10-19T22:31:36.181Z,102755.28
2018-10-19T22:34:03.909Z,102754.83
2018-10-19T22:36:31.523Z,102757.03
2018-10-19T22:38:59.375Z,102756.14
2018-10-19T22:41:27.006Z,102751.36
2018-10-19T22:43:54.655Z,102750.04
2018-10-19T22:46:22.225Z,102754.81
2018-10-19T22:48:49.959Z,102756.13
2018-10-19T22:51:17.570Z,102745.19
2018-10-19T22:53:45.180Z,102749.56
2018-10-19T22:56:12.747Z,102747.85
2018-10-19T22:58:40.657Z,102743.90
2018-10-19T23:01:08.382Z,102746.95
2018-10-19T23:03:36.020Z,102740.37
2018-10-19T23:06:03.633Z,102744.73
2018-10-19T23:08:31.268Z,102758.30
2018-10-19T23:10:58.913Z,102755.68
2018-10-19T23:13:26.543Z,102759.61
2018-10-19T23:15:54.198Z,102759.17
2018-10-19T23:18:21.826Z,102753.52
2018-10-19T23:20:49.542Z,102748.72
2018-10-19T23:23:17.285Z,102746.54
2018-10-19T23:25:45.029Z,102739.08
2018-10-19T23:28:12.594Z,102739.09
2018-10-19T23:30:40.255Z,102729.91
2018-10-19T23:33:07.944Z,102721.58
2018-10-19T23:35:35.783Z,102722.03
2018-10-19T23:38:03.568Z,102719.84
2018-10-19T23:40:31.255Z,102724.20
2018-10-19T23:42:58.869Z,102731.23
2018-10-19T23:45:26.454Z,102736.88
2018-10-19T23:47:54.114Z,102738.19
2018-10-19T23:50:21.732Z,102739.08
2018-10-19T23:52:49.320Z,102739.49
2018-10-19T23:55:17.094Z,102742.11
2018-10-19T23:57:44.674Z,102751.73
